Weather observations for the past three days for
Miami, Miami International Airport
Metric (Imperial)
Date Time (edt) Wind (kph) Vis. (km) Weather Sky Cond. Temperature (ºC) Relative Humidity Wind Chill (°C) Heat Index (°C) Pressure Precipitation (cm)
Air Dwpt 6 hour altimeter (cm) sea level (mb) 1 hr 3 hr 6 hr
Max. Min.
04 05:53 NW 7 11.27 Mostly Cloudy SCT005 BKN012 22.2 22.2 100% 76.02 1013.4
04 04:53 Vrbl 9 11.27 Overcast BKN005 OVC015 23.3 22.8 97% 76 1013.1 0.08
04 03:53 N 7 12.87 Overcast SCT007 BKN010 OVC036 23.3 22.8 97% 76 1013.0 0.08
04 02:53 Calm 16.09 Mostly Cloudy FEW015 SCT047 BKN065 24.4 22.8 91% 24 76 1013.3
04 01:53 Calm 16.09 Mostly Cloudy FEW015 SCT047 BKN065 24.4 22.8 25.6 23.9 91% 24 76.07 1014.1
04 00:53 Calm 16.09 Overcast BKN017 OVC090 24.4 22.8 91% 24 76.15 1015.3
03 23:53 N 7 16.09 Overcast FEW011 SCT090 OVC110 24.4 22.2 88% 25 76.15 1015.1
03 22:53 N 6 16.09 Overcast FEW011 SCT090 OVC110 24.4 22.2 88% 25 76.17 1015.4
03 21:53 NE 6 16.09 Light Rain FEW011 SCT060 OVC110 24.4 22.2 88% 25 76.15 1015.1
03 20:53 NE 9 16.09 Mostly Cloudy FEW016 SCT022 BKN140 BKN250 25 22.2 85% 26 76.1 1014.6
03 19:53 E 13 16.09 Mostly Cloudy FEW016 SCT024 BKN090 BKN250 25 22.8 27.8 25 88% 26 76.07 1014.1
03 18:53 NE 11 16.09 Light Rain SCT012 BKN024 OVC039 25.6 22.2 82% 27 76.05 1013.9
03 17:53 E 13 16.09 Light Rain BKN020 OVC041 25.6 22.2 82% 27 76.05 1013.8
03 16:53 E 7 16.09 Overcast BKN026 BKN036 OVC090 26.7 22.2 76% 29 76.07 1014.3
03 15:53 N 9 16.09 Overcast SCT024 BKN090 BKN110 OVC250 26.7 21.7 74% 29 76.07 1014.2
03 14:53 N 7 16.09 Overcast SCT028 SCT035 SCT065 OVC250 27.2 21.1 69% 29 76.15 1015.1
03 13:53 N 6 16.09 Overcast SCT023 BKN065 BKN110 OVC200 27.2 21.1 27.8 22.2 69% 29 76.2 1015.7 0.23
03 12:53 Vrbl 6 16.09 Overcast SCT017 BKN090 OVC200 26.1 22.2 79% 28 76.23 1016.1
03 11:53 NE 7 16.09 Overcast BKN014 BKN100 OVC200 25.6 21.7 79% 27 76.23 1016.2
03 10:53 Vrbl 6 16.09 Overcast FEW010 SCT028 BKN080 OVC200 25 22.2 85% 26 76.23 1016.2 0.23
03 09:53 NE 11 16.09 Mostly Cloudy FEW026 BKN090 BKN200 23.3 22.2 94% 76.2 1015.9
03 08:53 N 9 12.87 Light Rain FEW010 OVC024 22.2 21.1 94% 76.2 1016.0 0.23
03 07:53 N 13 8.05 Thunderstorm Light Rain BKN020CB BKN026 OVC050 22.2 21.7 26.7 22.2 97% 76.15 1015.1 1.45 2.03
03 06:53 Calm 16.09 Overcast BKN023 BKN030 OVC041 23.3 22.2 94% 76.05 1013.7 0.05
03 05:53 N 13 8.05 Thunderstorm Rain FEW010CB OVC020 23.3 22.8 97% 76 1013.2 0.53
03 04:53 W 6 16.09 Mostly Cloudy FEW050 SCT090 BKN250 26.7 22.2 76% 29 76.02 1013.4
03 03:53 SW 7 16.09 Mostly Cloudy SCT090 BKN250 26.1 22.8 82% 28 76 1013.1
03 02:53 S 11 16.09 Mostly Cloudy SCT090 BKN250 26.1 22.2 79% 28 75.95 1012.5
03 01:53 SW 7 16.09 Overcast SCT090 OVC250 26.1 22.2 30.6 26.1 79% 28 76.05 1013.8
03 00:53 W 11 16.09 Mostly Cloudy FEW090 BKN250 26.7 22.2 76% 29 76.1 1014.6
02 23:53 W 13 16.09 Mostly Cloudy FEW090 BKN250 26.7 22.2 76% 29 76.1 1014.6
02 22:53 W 9 16.09 Mostly Cloudy FEW090 BKN250 27.2 21.7 72% 29 76.07 1014.1
02 21:53 W 15 16.09 Mostly Cloudy FEW090 BKN250 27.8 21.1 67% 30 76.05 1014.0
02 20:53 W 17 16.09 A Few Clouds FEW080 FEW250 28.9 19.4 57% 30 76 1013.3
02 19:53 W 20 G 33 16.09 Partly Cloudy FEW045 FEW080 SCT250 29.4 17.2 34.4 29.4 48% 30 75.92 1012.3
02 18:53 W 17 16.09 Partly Cloudy FEW065 SCT250 32.2 16.7 39% 32 75.84 1011.1
02 17:53 W 22 16.09 Partly Cloudy FEW065 SCT250 33.3 16.1 36% 33 75.82 1010.9
02 16:53 W 26 G 39 16.09 A Few Clouds FEW060 FEW250 34.4 15 31% 34 75.79 1010.5
02 15:53 W 24 G 41 16.09 A Few Clouds FEW060 FEW250 33.9 17.8 38% 35 75.84 1011.0
02 14:53 W 24 G 39 16.09 Partly Cloudy SCT050 SCT250 33.9 18.3 40% 35 75.87 1011.4
02 13:53 SW 28 G 44 16.09 Mostly Cloudy BKN050 BKN250 32.8 19.4 33.3 26.7 45% 35 75.9 1011.7
02 12:53 SW 26 G 43 16.09 Mostly Cloudy BKN043 BKN050 BKN250 31.7 21.1 53% 35 75.92 1012.0
02 11:53 SW 28 16.09 Mostly Cloudy SCT034 BKN042 BKN250 31.1 22.2 59% 35 75.95 1012.4
02 10:53 S 22 G 39 16.09 Mostly Cloudy FEW032 SCT041 BKN250 31.1 22.8 61% 35 75.95 1012.5
02 09:53 S 22 16.09 Mostly Cloudy FEW030 BKN250 28.9 22.2 67% 32 75.92 1012.2
02 08:53 S 15 16.09 Partly Cloudy FEW027 SCT250 28.3 23.9 77% 32 75.95 1012.4
02 07:53 S 11 16.09 Mostly Cloudy FEW025 BKN060 26.1 23.3 26.1 24.4 85% 28 75.92 1012.2
02 06:53 S 7 16.09 Mostly Cloudy FEW025 BKN060 25.6 23.3 87% 27 75.92 1012.3
02 05:53 S 6 16.09 Mostly Cloudy FEW020 BKN070 25.6 23.3 87% 27 75.9 1012.0
02 04:53 S 9 16.09 Partly Cloudy SCT080 25.6 22.8 85% 27 75.9 1011.9
02 03:53 S 6 16.09 Mostly Cloudy FEW025 BKN070 25 22.2 85% 26 75.9 1011.9
02 02:53 SW 6 16.09 Overcast FEW025 OVC070 25 22.2 85% 26 75.92 1012.0
02 01:53 S 6 16.09 A Few Clouds FEW025 FEW250 25 22.2 27.2 25 85% 26 75.92 1012.2
02 00:53 S 9 16.09 A Few Clouds FEW045 FEW250 25 22.2 85% 26 75.97 1012.7
01 23:53 Calm 16.09 A Few Clouds FEW045 FEW250 26.1 22.2 79% 28 76 1013.1
01 22:53 Vrbl 6 16.09 A Few Clouds FEW045 26.1 21.7 77% 28 75.97 1013.0
01 21:53 S 17 G 31 16.09 A Few Clouds FEW045 26.7 21.7 74% 29 75.95 1012.4
01 20:53 S 20 16.09 Partly Cloudy FEW035 SCT250 26.7 21.1 71% 28 75.9 1011.7
01 19:53 S 20 G 35 16.09 Partly Cloudy FEW035 SCT250 27.2 20.6 30.6 27.2 67% 29 75.82 1011.0
01 18:53 SE 19 16.09 A Few Clouds FEW035 FEW250 28.3 20.6 63% 30 75.82 1010.7
01 17:53 SE 20 G 35 16.09 Partly Cloudy SCT042 28.9 21.1 63% 31 75.79 1010.4
01 16:53 SE 22 G 33 16.09 Partly Cloudy SCT042 29.4 21.1 61% 32 75.79 1010.6
01 14:53 SE 19 16.09 Partly Cloudy SCT045 SCT200 30 21.1 59% 33 75.9 1011.9
01 13:53 S 20 16.09 Partly Cloudy SCT042 SCT200 30.6 21.1 30.6 23.3 57% 33 75.95 1012.4
01 12:53 S 17 16.09 Partly Cloudy SCT044 29.4 20 57% 31 75.97 1012.9
01 11:53 S 13 16.09 A Few Clouds FEW038 FEW180 29.4 19.4 55% 31 76.02 1013.4
01 10:53 S 9 16.09 A Few Clouds FEW036 FEW180 28.3 19.4 59% 30 76.02 1013.7
01 09:53 SW 7 16.09 A Few Clouds FEW034 FEW250 26.7 19.4 64% 28 76.02 1013.6
01 08:53 N 6 16.09 Partly Cloudy SCT034 SCT250 25.6 20.6 74% 27 76.05 1013.9
01 07:53 W 9 16.09 Partly Cloudy FEW043 SCT250 23.3 20.6 23.9 22.2 85% 76.05 1013.8
01 06:53 Calm 16.09 Mostly Cloudy FEW045 BKN250 22.2 20 87% 76 1013.2
Date Time (edt) Wind (kph) Vis. (km) Weather Sky Cond. Air Dwpt Max. Min. Relative Humidity Wind Chill (°C) Heat Index (°C) altimeter (cm) sea level (mb) 1 hr 3 hr 6 hr
6 hour
Temperature (ºC) Pressure Precipitation (cm)